createdAt,value
2023-05-23T00:00:17.994Z,16.90
2023-05-23T00:02:45.190Z,16.80
2023-05-23T00:05:12.296Z,16.80
2023-05-23T00:07:39.424Z,16.80
2023-05-23T00:10:06.684Z,16.80
2023-05-23T00:12:37.933Z,16.80
2023-05-23T00:15:05.511Z,16.80
2023-05-23T00:17:32.576Z,16.90
2023-05-23T00:19:59.603Z,16.90
2023-05-23T00:22:26.544Z,16.90
2023-05-23T00:24:53.540Z,16.80
2023-05-23T00:27:20.622Z,16.80
2023-05-23T00:29:47.649Z,16.70
2023-05-23T00:32:14.687Z,16.70
2023-05-23T00:34:41.691Z,16.70
2023-05-23T00:37:08.714Z,16.70
2023-05-23T00:39:35.685Z,16.60
2023-05-23T00:42:04.926Z,16.70
2023-05-23T00:44:32.114Z,16.60
2023-05-23T00:46:59.902Z,16.60
2023-05-23T00:49:28.441Z,16.50
2023-05-23T00:51:55.779Z,16.50
2023-05-23T00:54:27.580Z,16.50
2023-05-23T00:56:55.109Z,16.60
2023-05-23T00:59:23.004Z,16.60
2023-05-23T01:01:51.118Z,16.60
2023-05-23T01:04:18.278Z,16.60
2023-05-23T01:06:47.320Z,16.60
2023-05-23T01:09:19.472Z,16.70
2023-05-23T01:12:08.336Z,16.60
2023-05-23T01:14:42.583Z,16.60
2023-05-23T01:17:16.520Z,16.70
2023-05-23T01:19:56.957Z,16.70
2023-05-23T01:22:31.282Z,16.60
2023-05-23T01:25:03.285Z,16.70
2023-05-23T01:27:46.835Z,16.60
2023-05-23T01:30:14.380Z,16.60
2023-05-23T01:32:41.932Z,16.50
2023-05-23T01:35:09.444Z,16.40
2023-05-23T01:37:36.449Z,16.40
2023-05-23T01:40:03.596Z,16.50
2023-05-23T01:42:30.916Z,16.50
2023-05-23T01:44:59.839Z,16.50
2023-05-23T01:47:27.017Z,16.40
2023-05-23T01:49:55.794Z,16.40
2023-05-23T01:52:23.730Z,16.40
2023-05-23T01:54:51.299Z,16.50
2023-05-23T01:57:18.469Z,16.50
2023-05-23T01:59:45.476Z,16.50
2023-05-23T02:02:12.640Z,16.50
2023-05-23T02:04:39.673Z,16.40
2023-05-23T02:07:07.572Z,16.40
2023-05-23T02:09:34.586Z,16.40
2023-05-23T02:12:01.764Z,16.40
2023-05-23T02:14:28.827Z,16.40
2023-05-23T02:16:55.910Z,16.30
2023-05-23T02:19:23.022Z,16.20
2023-05-23T02:21:50.048Z,16.20
2023-05-23T02:24:17.080Z,16.10
2023-05-23T02:26:44.086Z,16.10
2023-05-23T02:29:11.076Z,16.10
2023-05-23T02:31:38.319Z,16.10
2023-05-23T02:34:05.763Z,16.20
2023-05-23T02:36:33.867Z,16.20
2023-05-23T02:39:00.935Z,16.10
2023-05-23T02:41:27.961Z,16.00
2023-05-23T02:43:55.079Z,16.00
2023-05-23T02:46:22.154Z,16.00
2023-05-23T02:48:49.284Z,15.90
2023-05-23T02:51:16.417Z,15.90
2023-05-23T02:53:43.431Z,15.90
2023-05-23T02:56:10.668Z,15.80
2023-05-23T02:58:37.687Z,15.80
2023-05-23T03:01:07.740Z,15.80
2023-05-23T03:03:35.350Z,15.80
2023-05-23T03:06:03.728Z,15.80
2023-05-23T03:08:30.965Z,15.80
2023-05-23T03:10:58.101Z,15.70
2023-05-23T03:13:25.116Z,15.70
2023-05-23T03:15:52.192Z,15.60
2023-05-23T03:18:19.231Z,15.60
2023-05-23T03:20:46.198Z,15.60
2023-05-23T03:23:13.227Z,15.70
2023-05-23T03:25:40.420Z,15.80
2023-05-23T03:28:07.521Z,15.70
2023-05-23T03:30:34.583Z,15.70
2023-05-23T03:33:02.860Z,15.70
2023-05-23T03:35:29.928Z,15.70
2023-05-23T03:37:57.033Z,15.70
2023-05-23T03:40:24.161Z,15.70
2023-05-23T03:43:03.604Z,15.70
2023-05-23T03:45:31.289Z,15.70
2023-05-23T03:47:58.888Z,15.60
2023-05-23T03:50:26.234Z,15.60
2023-05-23T03:52:53.545Z,15.60
2023-05-23T03:55:22.662Z,15.60
2023-05-23T03:57:49.931Z,15.60
2023-05-23T04:00:17.183Z,15.60
2023-05-23T04:02:46.767Z,15.70
2023-05-23T04:05:14.043Z,15.70
2023-05-23T04:07:42.114Z,15.70
2023-05-23T04:10:09.677Z,15.60
2023-05-23T04:12:37.125Z,15.60
2023-05-23T04:15:04.434Z,15.70
2023-05-23T04:17:31.686Z,15.70
2023-05-23T04:19:58.761Z,15.70
2023-05-23T04:22:25.787Z,15.70
2023-05-23T04:24:53.201Z,15.80
2023-05-23T04:27:20.360Z,15.80
2023-05-23T04:29:47.381Z,15.90
2023-05-23T04:32:15.079Z,15.90
2023-05-23T04:34:42.081Z,15.90
2023-05-23T04:37:10.051Z,15.90
2023-05-23T04:39:37.249Z,15.90
2023-05-23T04:42:04.362Z,15.80
2023-05-23T04:44:31.302Z,15.80
2023-05-23T04:46:58.293Z,15.80
2023-05-23T04:49:25.761Z,15.90
2023-05-23T04:51:52.881Z,15.80
2023-05-23T04:54:19.936Z,15.80
2023-05-23T04:56:46.884Z,15.80
2023-05-23T04:59:13.947Z,15.80
2023-05-23T05:01:41.228Z,15.80
2023-05-23T05:04:08.681Z,15.80
2023-05-23T05:06:35.747Z,15.70
2023-05-23T05:09:02.739Z,15.70
2023-05-23T05:11:29.749Z,15.70
2023-05-23T05:13:56.789Z,15.80
2023-05-23T05:16:23.788Z,15.80
2023-05-23T05:18:51.998Z,15.80
2023-05-23T05:21:19.031Z,15.90
2023-05-23T05:23:46.520Z,15.80
2023-05-23T05:26:13.527Z,15.80
2023-05-23T05:28:41.422Z,15.90
2023-05-23T05:31:08.488Z,15.90
2023-05-23T05:33:36.469Z,15.80
2023-05-23T05:36:04.034Z,15.70
2023-05-23T05:38:31.194Z,15.80
2023-05-23T05:40:58.296Z,15.80
2023-05-23T05:43:26.471Z,15.60
2023-05-23T05:45:53.563Z,15.60
2023-05-23T05:48:20.622Z,15.60
2023-05-23T05:50:47.609Z,15.50
2023-05-23T05:53:14.601Z,15.40
2023-05-23T05:55:41.709Z,15.30
2023-05-23T05:58:08.687Z,15.40
2023-05-23T06:00:42.564Z,15.30
2023-05-23T06:03:09.978Z,15.40
2023-05-23T06:05:37.776Z,15.40
2023-05-23T06:08:05.162Z,15.40
2023-05-23T06:10:32.176Z,15.30
2023-05-23T06:12:59.396Z,15.40
2023-05-23T06:15:26.691Z,15.40
2023-05-23T06:17:53.901Z,15.40
2023-05-23T06:20:21.016Z,15.40
2023-05-23T06:22:48.392Z,15.40
2023-05-23T06:25:16.220Z,15.50
2023-05-23T06:27:45.102Z,15.40
2023-05-23T06:30:12.660Z,15.40
2023-05-23T06:32:40.929Z,15.30
2023-05-23T06:35:08.177Z,15.30
2023-05-23T06:37:35.371Z,15.50
2023-05-23T06:40:02.807Z,15.60
2023-05-23T06:42:30.041Z,15.50
2023-05-23T06:44:57.123Z,15.50
2023-05-23T06:47:24.206Z,15.60
2023-05-23T06:49:51.756Z,15.70
2023-05-23T06:52:18.822Z,15.60
2023-05-23T06:54:45.842Z,15.60
2023-05-23T06:57:12.871Z,15.60
2023-05-23T06:59:39.908Z,15.50
2023-05-23T07:02:06.889Z,15.50
2023-05-23T07:04:33.886Z,15.50
2023-05-23T07:07:01.056Z,15.50
2023-05-23T07:09:28.198Z,15.50
2023-05-23T07:11:55.416Z,15.50
2023-05-23T07:14:22.514Z,15.40
2023-05-23T07:16:49.644Z,15.40
2023-05-23T07:19:16.833Z,15.40
2023-05-23T07:21:43.896Z,15.50
2023-05-23T07:24:10.899Z,15.60
2023-05-23T07:26:38.050Z,15.70
2023-05-23T07:29:04.995Z,15.70
2023-05-23T07:31:32.020Z,15.70
2023-05-23T07:33:59.049Z,15.60
2023-05-23T07:36:26.125Z,15.60
2023-05-23T07:38:53.578Z,15.60
2023-05-23T07:41:21.205Z,15.70
2023-05-23T07:43:48.211Z,15.80
2023-05-23T07:46:15.584Z,15.80
2023-05-23T07:48:42.707Z,15.80
2023-05-23T07:51:09.838Z,15.80
2023-05-23T07:53:40.397Z,15.90
2023-05-23T07:56:07.521Z,15.90
2023-05-23T07:58:34.563Z,16.10
2023-05-23T08:01:02.311Z,16.20
2023-05-23T08:03:29.375Z,16.20
2023-05-23T08:05:56.801Z,16.30
2023-05-23T08:08:24.001Z,16.40
2023-05-23T08:10:51.609Z,16.40
2023-05-23T08:13:18.666Z,16.30
2023-05-23T08:15:46.009Z,16.30
2023-05-23T08:18:13.462Z,16.30
2023-05-23T08:20:40.822Z,16.40
2023-05-23T08:23:08.150Z,16.40
2023-05-23T08:25:35.231Z,16.40
2023-05-23T08:28:02.256Z,16.50
2023-05-23T08:30:29.658Z,16.40
2023-05-23T08:32:57.308Z,16.50
2023-05-23T08:35:24.677Z,16.30
2023-05-23T08:37:52.738Z,16.30
2023-05-23T08:40:23.633Z,16.40
2023-05-23T08:42:51.323Z,16.50
2023-05-23T08:45:18.977Z,16.50
2023-05-23T08:47:46.873Z,16.30
2023-05-23T08:50:14.904Z,16.40
2023-05-23T08:52:50.633Z,16.40
2023-05-23T08:55:18.029Z,16.30
2023-05-23T08:57:45.927Z,16.20
2023-05-23T09:00:15.876Z,16.30
2023-05-23T09:02:46.674Z,16.30
2023-05-23T09:05:14.070Z,16.30
2023-05-23T09:07:42.302Z,16.30
2023-05-23T09:10:10.029Z,16.30
2023-05-23T09:12:37.673Z,16.40
2023-05-23T09:15:05.558Z,16.40
2023-05-23T09:17:33.749Z,16.40
2023-05-23T09:20:05.575Z,16.40
2023-05-23T09:22:32.637Z,16.40
2023-05-23T09:25:00.712Z,16.20
2023-05-23T09:27:28.162Z,16.30
2023-05-23T09:29:55.319Z,16.40
2023-05-23T09:32:22.417Z,16.60
2023-05-23T09:34:57.373Z,16.70
2023-05-23T09:37:46.215Z,16.90
2023-05-23T09:40:14.501Z,17.10
2023-05-23T09:42:46.016Z,17.10
2023-05-23T09:45:13.710Z,17.20
2023-05-23T09:47:49.273Z,17.30
2023-05-23T09:50:16.447Z,17.30
2023-05-23T09:52:43.503Z,17.30
2023-05-23T09:55:10.935Z,17.40
2023-05-23T09:57:42.253Z,17.40
2023-05-23T10:00:11.654Z,17.40
2023-05-23T10:02:41.618Z,17.40
2023-05-23T10:05:09.471Z,17.50
2023-05-23T10:07:37.558Z,17.60
2023-05-23T10:10:07.162Z,17.70
2023-05-23T10:12:50.398Z,17.80
2023-05-23T10:15:18.859Z,18.00
2023-05-23T10:17:46.569Z,18.00
2023-05-23T10:20:16.392Z,18.10
2023-05-23T10:22:43.846Z,18.20
2023-05-23T10:25:10.920Z,18.10
2023-05-23T10:27:39.499Z,18.10
2023-05-23T10:30:07.695Z,18.20
2023-05-23T10:32:36.071Z,18.10
2023-05-23T10:35:14.994Z,18.10
2023-05-23T10:37:51.341Z,18.30
2023-05-23T10:40:18.376Z,18.30
2023-05-23T10:42:51.283Z,18.50
2023-05-23T10:45:21.024Z,18.50
2023-05-23T10:47:49.125Z,18.50
2023-05-23T10:50:31.102Z,18.50
2023-05-23T10:52:58.109Z,18.50
2023-05-23T10:55:25.123Z,18.30
2023-05-23T10:58:11.634Z,18.30
2023-05-23T11:00:38.868Z,18.10
2023-05-23T11:03:09.374Z,18.00
2023-05-23T11:05:38.982Z,18.20
2023-05-23T11:08:15.359Z,18.30
2023-05-23T11:11:01.566Z,18.50
2023-05-23T11:13:47.025Z,18.80
2023-05-23T11:16:30.566Z,18.90
2023-05-23T11:19:16.286Z,18.90
2023-05-23T11:21:43.753Z,19.00
2023-05-23T11:24:10.805Z,19.00
2023-05-23T11:26:37.828Z,18.90
2023-05-23T11:29:08.589Z,18.80
2023-05-23T11:31:39.066Z,18.80
2023-05-23T11:34:07.044Z,18.70
2023-05-23T11:36:34.102Z,18.70
2023-05-23T11:39:04.489Z,18.80
2023-05-23T11:41:31.773Z,18.80
2023-05-23T11:44:00.149Z,18.90
2023-05-23T11:46:27.433Z,18.90
2023-05-23T11:48:55.081Z,19.10
2023-05-23T11:51:22.181Z,19.20
2023-05-23T11:53:49.308Z,19.30
2023-05-23T11:56:17.032Z,19.50
2023-05-23T11:58:45.486Z,19.40
2023-05-23T12:01:13.016Z,19.40
2023-05-23T12:03:47.215Z,19.60
2023-05-23T12:06:20.975Z,19.70
2023-05-23T12:08:48.334Z,19.90
2023-05-23T12:11:15.586Z,20.10
2023-05-23T12:13:42.699Z,20.20
2023-05-23T12:16:10.004Z,20.40
2023-05-23T12:18:38.206Z,20.10
2023-05-23T12:21:08.641Z,20.10
2023-05-23T12:23:36.489Z,20.10
2023-05-23T12:26:10.584Z,20.00
2023-05-23T12:28:38.621Z,20.10
2023-05-23T12:31:12.684Z,20.00
2023-05-23T12:33:40.868Z,19.70
2023-05-23T12:36:09.588Z,19.70
2023-05-23T12:38:41.252Z,19.80
2023-05-23T12:41:09.180Z,20.00
2023-05-23T12:43:40.187Z,20.30
2023-05-23T12:46:10.188Z,20.40
2023-05-23T12:48:37.291Z,20.40
2023-05-23T12:51:04.532Z,20.50
2023-05-23T12:53:31.791Z,20.60
2023-05-23T12:55:58.844Z,20.60
2023-05-23T12:58:25.937Z,20.40
2023-05-23T13:00:52.954Z,20.30
2023-05-23T13:03:20.298Z,20.10
2023-05-23T13:05:47.375Z,20.30
2023-05-23T13:08:14.468Z,20.50
2023-05-23T13:10:41.474Z,20.40
2023-05-23T13:13:08.469Z,20.40
2023-05-23T13:15:36.144Z,20.60
2023-05-23T13:18:03.366Z,20.90
2023-05-23T13:20:31.169Z,20.90
2023-05-23T13:22:58.249Z,20.60
2023-05-23T13:25:26.190Z,20.20
2023-05-23T13:27:53.754Z,20.20
2023-05-23T13:30:21.324Z,20.50
2023-05-23T13:32:49.565Z,20.80
2023-05-23T13:35:18.682Z,21.00
2023-05-23T13:37:45.968Z,21.20
2023-05-23T13:40:13.939Z,21.20
2023-05-23T13:42:40.949Z,21.00
2023-05-23T13:45:08.299Z,21.20
2023-05-23T13:47:36.584Z,21.50
2023-05-23T13:50:04.316Z,21.70
2023-05-23T13:52:31.507Z,21.90
2023-05-23T13:55:00.063Z,21.80
2023-05-23T13:57:27.321Z,21.40
2023-05-23T13:59:54.345Z,21.60
2023-05-23T14:02:23.030Z,21.70
2023-05-23T14:04:52.942Z,21.90
2023-05-23T14:07:19.984Z,22.10
2023-05-23T14:09:47.026Z,22.10
2023-05-23T14:12:14.000Z,22.20
2023-05-23T14:14:41.118Z,22.10
2023-05-23T14:17:08.109Z,22.00
2023-05-23T14:19:35.356Z,22.30
2023-05-23T14:22:02.485Z,22.40
2023-05-23T14:24:29.583Z,22.30
2023-05-23T14:26:56.663Z,22.00
2023-05-23T14:29:23.790Z,21.90
2023-05-23T14:31:50.832Z,21.70
2023-05-23T14:34:18.082Z,21.50
2023-05-23T14:36:45.120Z,21.20
2023-05-23T14:39:12.126Z,21.50
2023-05-23T14:41:39.252Z,21.50
2023-05-23T14:44:06.471Z,21.50
2023-05-23T14:46:33.622Z,21.30
2023-05-23T14:49:01.010Z,21.10
2023-05-23T14:51:43.149Z,21.00
2023-05-23T14:54:13.799Z,21.00
2023-05-23T14:56:41.931Z,21.20
2023-05-23T14:59:09.324Z,21.50
2023-05-23T15:01:38.730Z,21.50
2023-05-23T15:04:09.785Z,21.30
2023-05-23T15:06:38.291Z,21.50
2023-05-23T15:09:05.475Z,21.70
2023-05-23T15:11:33.444Z,21.70
2023-05-23T15:14:00.977Z,21.80
2023-05-23T15:16:33.075Z,21.90
2023-05-23T15:19:00.693Z,21.90
2023-05-23T15:21:27.936Z,22.10
2023-05-23T15:23:55.028Z,22.00
2023-05-23T15:26:22.790Z,22.20
2023-05-23T15:28:49.858Z,22.30
2023-05-23T15:31:17.088Z,21.80
2023-05-23T15:33:44.104Z,21.40
2023-05-23T15:36:13.454Z,21.40
2023-05-23T15:38:40.762Z,21.60
2023-05-23T15:41:07.781Z,21.50
2023-05-23T15:43:35.785Z,21.60
2023-05-23T15:46:03.209Z,21.60
2023-05-23T15:48:30.275Z,21.70
2023-05-23T15:50:57.234Z,21.60
2023-05-23T15:53:24.294Z,21.80
2023-05-23T15:55:51.337Z,22.00
2023-05-23T15:58:18.650Z,22.10
2023-05-23T16:00:45.762Z,22.30
2023-05-23T16:03:13.009Z,22.10
2023-05-23T16:05:40.175Z,21.90
2023-05-23T16:08:07.355Z,21.60
2023-05-23T16:10:34.357Z,21.40
2023-05-23T16:13:01.573Z,21.30
2023-05-23T16:15:28.604Z,21.20
2023-05-23T16:17:55.802Z,21.30
2023-05-23T16:20:22.892Z,21.30
2023-05-23T16:22:49.861Z,21.40
2023-05-23T16:25:16.977Z,21.40
2023-05-23T16:27:44.367Z,21.60
2023-05-23T16:30:11.518Z,21.60
2023-05-23T16:32:38.598Z,21.60
2023-05-23T16:35:05.895Z,21.40
2023-05-23T16:37:32.941Z,21.50
2023-05-23T16:40:00.279Z,21.40
2023-05-23T16:42:27.434Z,21.30
2023-05-23T16:44:54.538Z,21.30
2023-05-23T16:47:21.638Z,21.00
2023-05-23T16:49:48.966Z,20.90
2023-05-23T16:52:17.005Z,20.50
2023-05-23T16:54:44.297Z,20.40
2023-05-23T16:57:11.620Z,20.30
2023-05-23T16:59:38.694Z,20.30
2023-05-23T17:02:05.790Z,20.00
2023-05-23T17:04:32.779Z,19.50
2023-05-23T17:06:59.858Z,19.30
2023-05-23T17:09:26.904Z,19.10
2023-05-23T17:11:53.968Z,18.90
2023-05-23T17:14:21.226Z,18.80
2023-05-23T17:16:48.214Z,18.40
2023-05-23T17:19:15.391Z,18.20
2023-05-23T17:21:42.431Z,18.10
2023-05-23T17:24:09.601Z,18.10
2023-05-23T17:26:36.607Z,18.00
2023-05-23T17:29:03.662Z,18.00
2023-05-23T17:31:31.067Z,17.70
2023-05-23T17:33:58.280Z,17.70
2023-05-23T17:36:25.395Z,17.60
2023-05-23T17:38:55.200Z,17.30
2023-05-23T17:41:24.830Z,17.20
2023-05-23T17:43:51.862Z,17.10
2023-05-23T17:46:18.993Z,17.30
2023-05-23T17:48:48.091Z,17.40
2023-05-23T17:51:16.152Z,17.50
2023-05-23T17:53:43.629Z,17.50
2023-05-23T17:56:10.748Z,17.60
2023-05-23T17:58:39.326Z,17.60
2023-05-23T18:01:08.887Z,17.60
2023-05-23T18:03:35.921Z,17.70
2023-05-23T18:06:02.994Z,17.70
2023-05-23T18:08:30.032Z,17.70
2023-05-23T18:10:57.524Z,17.60
2023-05-23T18:13:24.663Z,17.50
2023-05-23T18:15:51.617Z,17.40
2023-05-23T18:18:18.741Z,17.20
2023-05-23T18:20:45.809Z,17.20
2023-05-23T18:23:12.911Z,17.00
2023-05-23T18:25:40.000Z,17.00
2023-05-23T18:28:07.124Z,17.10
2023-05-23T18:30:34.199Z,17.00
2023-05-23T18:33:01.418Z,17.00
2023-05-23T18:35:28.570Z,17.00
2023-05-23T18:37:55.801Z,16.90
2023-05-23T18:40:24.476Z,16.90
2023-05-23T18:42:51.634Z,16.80
2023-05-23T18:45:18.728Z,16.60
2023-05-23T18:47:45.727Z,16.50
2023-05-23T18:50:13.287Z,16.30
2023-05-23T18:52:40.908Z,16.20
2023-05-23T18:55:08.102Z,16.00
2023-05-23T18:57:35.116Z,15.90
2023-05-23T19:00:02.797Z,15.80
2023-05-23T19:02:29.972Z,15.70
2023-05-23T19:04:57.105Z,15.60
2023-05-23T19:07:24.322Z,15.60
2023-05-23T19:09:52.037Z,15.70
2023-05-23T19:12:19.333Z,15.60
2023-05-23T19:14:46.767Z,15.50
2023-05-23T19:17:13.858Z,15.40
2023-05-23T19:19:41.120Z,15.30
2023-05-23T19:22:08.648Z,15.30
2023-05-23T19:24:35.840Z,15.40
2023-05-23T19:27:02.892Z,15.40
2023-05-23T19:29:29.935Z,15.40
2023-05-23T19:31:57.511Z,15.30
2023-05-23T19:34:24.739Z,15.40
2023-05-23T19:36:51.837Z,15.40
2023-05-23T19:39:19.410Z,15.30
2023-05-23T19:41:46.611Z,15.30
2023-05-23T19:44:13.878Z,15.30
2023-05-23T19:46:40.924Z,15.30
2023-05-23T19:49:11.034Z,15.20
2023-05-23T19:51:38.553Z,15.10
2023-05-23T19:54:05.984Z,15.10
2023-05-23T19:56:34.606Z,15.10
2023-05-23T19:59:01.840Z,15.00
2023-05-23T20:01:31.048Z,15.00
2023-05-23T20:03:58.141Z,14.90
2023-05-23T20:06:25.642Z,14.90
2023-05-23T20:08:52.615Z,14.80
2023-05-23T20:11:19.776Z,14.80
2023-05-23T20:13:46.925Z,14.70
2023-05-23T20:16:14.241Z,14.70
2023-05-23T20:18:42.619Z,14.70
2023-05-23T20:21:09.690Z,14.60
2023-05-23T20:23:36.632Z,14.60
2023-05-23T20:26:03.849Z,14.50
2023-05-23T20:28:30.883Z,14.40
2023-05-23T20:30:58.725Z,14.40
2023-05-23T20:33:25.868Z,14.40
2023-05-23T20:35:54.581Z,14.40
2023-05-23T20:38:21.623Z,14.50
2023-05-23T20:40:52.458Z,14.60
2023-05-23T20:43:20.569Z,14.70
2023-05-23T20:45:48.517Z,14.80
2023-05-23T20:48:15.827Z,14.80
2023-05-23T20:50:44.369Z,14.80
2023-05-23T20:53:11.555Z,14.80
2023-05-23T20:55:38.595Z,14.80
2023-05-23T20:58:05.680Z,14.80
2023-05-23T21:00:32.725Z,14.80
2023-05-23T21:02:59.810Z,14.70
2023-05-23T21:05:27.129Z,14.70
2023-05-23T21:07:54.412Z,14.60
2023-05-23T21:10:21.416Z,14.50
2023-05-23T21:12:50.421Z,14.50
2023-05-23T21:15:17.626Z,14.50
2023-05-23T21:17:44.938Z,14.60
2023-05-23T21:20:12.289Z,14.60
2023-05-23T21:22:39.612Z,14.50
2023-05-23T21:25:06.777Z,14.60
2023-05-23T21:27:33.789Z,14.60
2023-05-23T21:30:00.848Z,14.50
2023-05-23T21:32:27.986Z,14.40
2023-05-23T21:34:55.069Z,14.40
2023-05-23T21:37:22.098Z,14.50
2023-05-23T21:39:52.315Z,14.60
2023-05-23T21:42:21.344Z,14.60
2023-05-23T21:44:48.587Z,14.50
2023-05-23T21:47:15.766Z,14.50
2023-05-23T21:49:42.914Z,14.50
2023-05-23T21:52:09.988Z,14.50
2023-05-23T21:54:37.138Z,14.50
2023-05-23T21:57:04.249Z,14.50
2023-05-23T21:59:31.323Z,14.40
2023-05-23T22:01:58.432Z,14.40
2023-05-23T22:04:25.933Z,14.40
2023-05-23T22:06:52.987Z,14.30
2023-05-23T22:09:20.544Z,14.20
2023-05-23T22:11:47.551Z,14.20
2023-05-23T22:14:14.601Z,14.20
2023-05-23T22:16:41.683Z,14.20
2023-05-23T22:19:10.524Z,14.10
2023-05-23T22:21:37.818Z,14.10
2023-05-23T22:24:05.234Z,14.00
2023-05-23T22:26:32.513Z,14.00
2023-05-23T22:28:59.635Z,13.90
2023-05-23T22:31:26.815Z,13.90
2023-05-23T22:33:53.925Z,13.80
2023-05-23T22:36:22.362Z,13.80
2023-05-23T22:38:49.489Z,13.70
2023-05-23T22:41:16.876Z,13.60
2023-05-23T22:43:44.060Z,13.50
2023-05-23T22:46:11.493Z,13.50
2023-05-23T22:48:39.365Z,13.50
2023-05-23T22:51:08.117Z,13.40
2023-05-23T22:53:35.274Z,13.40
2023-05-23T22:56:03.096Z,13.40
2023-05-23T22:58:30.137Z,13.40
2023-05-23T23:00:57.267Z,13.30
2023-05-23T23:03:24.585Z,13.30
2023-05-23T23:05:51.890Z,13.30
2023-05-23T23:08:19.680Z,13.20
2023-05-23T23:10:46.806Z,13.20
2023-05-23T23:13:14.429Z,13.20
2023-05-23T23:15:43.174Z,13.10
2023-05-23T23:18:10.657Z,13.10
2023-05-23T23:20:39.068Z,13.00
2023-05-23T23:23:06.218Z,13.00
2023-05-23T23:25:33.578Z,12.90
2023-05-23T23:28:01.123Z,12.90
2023-05-23T23:30:28.253Z,12.90
2023-05-23T23:32:55.518Z,12.80
2023-05-23T23:35:22.681Z,12.70
2023-05-23T23:37:49.746Z,12.70
2023-05-23T23:40:16.999Z,12.60
2023-05-23T23:42:44.100Z,12.60
2023-05-23T23:45:11.673Z,12.50
2023-05-23T23:47:38.793Z,12.40
2023-05-23T23:50:06.996Z,12.40
2023-05-23T23:52:34.173Z,12.30
2023-05-23T23:55:01.732Z,12.20
2023-05-23T23:57:28.822Z,12.20
2023-05-23T23:59:55.805Z,12.10
